sensor_id;sensor_type;location;lat;lon;timestamp;P1;durP1;ratioP1;P2;durP2;ratioP2
40637;SDS011;26336;44.696;10.622;2023-07-30T00:01:12;5.28;;;3.65;;
40637;SDS011;26336;44.696;10.622;2023-07-30T00:04:15;6.70;;;4.10;;
40637;SDS011;26336;44.696;10.622;2023-07-30T00:07:19;4.63;;;3.72;;
40637;SDS011;26336;44.696;10.622;2023-07-30T00:10:23;6.80;;;3.75;;
40637;SDS011;26336;44.696;10.622;2023-07-30T00:13:27;4.15;;;3.33;;
40637;SDS011;26336;44.696;10.622;2023-07-30T00:16:31;5.53;;;3.67;;
40637;SDS011;26336;44.696;10.622;2023-07-30T00:19:35;5.88;;;3.42;;
40637;SDS011;26336;44.696;10.622;2023-07-30T00:22:39;5.30;;;4.00;;
40637;SDS011;26336;44.696;10.622;2023-07-30T00:25:43;4.72;;;3.63;;
40637;SDS011;26336;44.696;10.622;2023-07-30T00:28:47;7.82;;;3.80;;
40637;SDS011;26336;44.696;10.622;2023-07-30T00:31:51;5.10;;;3.63;;
40637;SDS011;26336;44.696;10.622;2023-07-30T00:34:55;9.82;;;4.22;;
40637;SDS011;26336;44.696;10.622;2023-07-30T00:38:00;7.97;;;3.55;;
40637;SDS011;26336;44.696;10.622;2023-07-30T00:41:03;7.75;;;3.03;;
40637;SDS011;26336;44.696;10.622;2023-07-30T00:44:07;8.00;;;2.95;;
40637;SDS011;26336;44.696;10.622;2023-07-30T00:47:12;5.78;;;2.45;;
40637;SDS011;26336;44.696;10.622;2023-07-30T00:50:17;7.70;;;2.30;;
40637;SDS011;26336;44.696;10.622;2023-07-30T00:53:22;4.00;;;1.80;;
40637;SDS011;26336;44.696;10.622;2023-07-30T00:56:28;5.40;;;2.17;;
40637;SDS011;26336;44.696;10.622;2023-07-30T00:59:32;4.22;;;1.73;;
40637;SDS011;26336;44.696;10.622;2023-07-30T01:02:37;3.80;;;1.67;;
40637;SDS011;26336;44.696;10.622;2023-07-30T01:05:41;2.83;;;1.52;;
40637;SDS011;26336;44.696;10.622;2023-07-30T01:08:45;1.73;;;1.20;;
40637;SDS011;26336;44.696;10.622;2023-07-30T01:11:51;1.50;;;1.40;;
40637;SDS011;26336;44.696;10.622;2023-07-30T01:14:58;3.22;;;1.40;;
40637;SDS011;26336;44.696;10.622;2023-07-30T01:18:03;5.82;;;0.93;;
40637;SDS011;26336;44.696;10.622;2023-07-30T01:21:06;5.15;;;1.25;;
40637;SDS011;26336;44.696;10.622;2023-07-30T01:24:10;6.05;;;1.10;;
40637;SDS011;26336;44.696;10.622;2023-07-30T01:27:25;1.20;;;1.10;;
40637;SDS011;26336;44.696;10.622;2023-07-30T01:30:36;1.83;;;1.13;;
40637;SDS011;26336;44.696;10.622;2023-07-30T01:33:46;2.83;;;1.23;;
40637;SDS011;26336;44.696;10.622;2023-07-30T01:36:54;1.48;;;1.17;;
40637;SDS011;26336;44.696;10.622;2023-07-30T01:39:59;1.63;;;1.35;;
40637;SDS011;26336;44.696;10.622;2023-07-30T01:43:04;4.15;;;1.52;;
40637;SDS011;26336;44.696;10.622;2023-07-30T01:46:08;2.30;;;1.35;;
40637;SDS011;26336;44.696;10.622;2023-07-30T01:49:12;2.75;;;1.50;;
40637;SDS011;26336;44.696;10.622;2023-07-30T01:52:16;3.53;;;1.25;;
40637;SDS011;26336;44.696;10.622;2023-07-30T01:55:20;2.85;;;1.45;;
40637;SDS011;26336;44.696;10.622;2023-07-30T01:58:25;1.20;;;1.02;;
40637;SDS011;26336;44.696;10.622;2023-07-30T02:01:29;4.32;;;1.67;;
40637;SDS011;26336;44.696;10.622;2023-07-30T02:04:33;2.42;;;1.48;;
40637;SDS011;26336;44.696;10.622;2023-07-30T02:07:37;2.53;;;1.27;;
40637;SDS011;26336;44.696;10.622;2023-07-30T02:10:42;1.52;;;1.30;;
40637;SDS011;26336;44.696;10.622;2023-07-30T02:13:46;1.60;;;1.40;;
40637;SDS011;26336;44.696;10.622;2023-07-30T02:16:50;3.10;;;1.20;;
40637;SDS011;26336;44.696;10.622;2023-07-30T02:19:54;1.65;;;1.30;;
40637;SDS011;26336;44.696;10.622;2023-07-30T02:22:58;4.10;;;1.70;;
40637;SDS011;26336;44.696;10.622;2023-07-30T02:26:02;3.67;;;1.23;;
40637;SDS011;26336;44.696;10.622;2023-07-30T02:29:06;2.08;;;1.35;;
40637;SDS011;26336;44.696;10.622;2023-07-30T02:32:10;2.22;;;1.50;;
40637;SDS011;26336;44.696;10.622;2023-07-30T02:35:14;3.72;;;1.40;;
40637;SDS011;26336;44.696;10.622;2023-07-30T02:38:18;2.47;;;1.08;;
40637;SDS011;26336;44.696;10.622;2023-07-30T02:41:23;1.63;;;1.27;;
40637;SDS011;26336;44.696;10.622;2023-07-30T02:44:26;2.53;;;1.20;;
40637;SDS011;26336;44.696;10.622;2023-07-30T02:47:30;2.83;;;1.33;;
40637;SDS011;26336;44.696;10.622;2023-07-30T02:50:34;2.90;;;1.25;;
40637;SDS011;26336;44.696;10.622;2023-07-30T02:53:38;2.80;;;1.67;;
40637;SDS011;26336;44.696;10.622;2023-07-30T02:56:42;1.90;;;1.05;;
40637;SDS011;26336;44.696;10.622;2023-07-30T02:59:47;1.38;;;1.02;;
40637;SDS011;26336;44.696;10.622;2023-07-30T03:02:53;1.30;;;1.10;;
40637;SDS011;26336;44.696;10.622;2023-07-30T03:05:57;4.22;;;1.50;;
40637;SDS011;26336;44.696;10.622;2023-07-30T03:09:10;2.22;;;1.52;;
40637;SDS011;26336;44.696;10.622;2023-07-30T03:12:14;1.88;;;1.25;;
40637;SDS011;26336;44.696;10.622;2023-07-30T03:15:19;2.25;;;1.20;;
40637;SDS011;26336;44.696;10.622;2023-07-30T03:18:23;2.22;;;1.10;;
40637;SDS011;26336;44.696;10.622;2023-07-30T03:21:27;2.30;;;1.30;;
40637;SDS011;26336;44.696;10.622;2023-07-30T03:24:31;2.15;;;1.20;;
40637;SDS011;26336;44.696;10.622;2023-07-30T03:27:35;1.83;;;1.20;;
40637;SDS011;26336;44.696;10.622;2023-07-30T03:30:39;2.67;;;1.42;;
40637;SDS011;26336;44.696;10.622;2023-07-30T03:33:43;1.50;;;1.10;;
40637;SDS011;26336;44.696;10.622;2023-07-30T03:36:47;1.85;;;1.27;;
40637;SDS011;26336;44.696;10.622;2023-07-30T03:39:51;2.38;;;1.10;;
40637;SDS011;26336;44.696;10.622;2023-07-30T03:42:55;1.60;;;1.33;;
40637;SDS011;26336;44.696;10.622;2023-07-30T03:45:59;2.22;;;1.45;;
40637;SDS011;26336;44.696;10.622;2023-07-30T03:49:03;2.50;;;1.25;;
40637;SDS011;26336;44.696;10.622;2023-07-30T03:52:07;2.47;;;1.20;;
40637;SDS011;26336;44.696;10.622;2023-07-30T03:55:11;1.50;;;1.40;;
40637;SDS011;26336;44.696;10.622;2023-07-30T03:58:15;3.50;;;1.35;;
40637;SDS011;26336;44.696;10.622;2023-07-30T04:01:19;1.55;;;1.38;;
40637;SDS011;26336;44.696;10.622;2023-07-30T04:04:24;1.83;;;1.25;;
40637;SDS011;26336;44.696;10.622;2023-07-30T04:07:28;2.65;;;1.30;;
40637;SDS011;26336;44.696;10.622;2023-07-30T04:10:32;2.78;;;1.38;;
40637;SDS011;26336;44.696;10.622;2023-07-30T04:13:36;1.73;;;1.30;;
40637;SDS011;26336;44.696;10.622;2023-07-30T04:16:40;3.58;;;1.67;;
40637;SDS011;26336;44.696;10.622;2023-07-30T04:19:44;2.10;;;1.50;;
40637;SDS011;26336;44.696;10.622;2023-07-30T04:22:48;2.55;;;1.73;;
40637;SDS011;26336;44.696;10.622;2023-07-30T04:25:52;2.20;;;1.38;;
40637;SDS011;26336;44.696;10.622;2023-07-30T04:28:56;3.00;;;1.60;;
40637;SDS011;26336;44.696;10.622;2023-07-30T04:32:01;1.80;;;1.40;;
40637;SDS011;26336;44.696;10.622;2023-07-30T04:35:04;1.90;;;1.48;;
40637;SDS011;26336;44.696;10.622;2023-07-30T04:38:10;2.20;;;1.75;;
40637;SDS011;26336;44.696;10.622;2023-07-30T04:41:15;4.20;;;1.85;;
40637;SDS011;26336;44.696;10.622;2023-07-30T04:44:25;2.72;;;1.90;;
40637;SDS011;26336;44.696;10.622;2023-07-30T04:47:30;2.58;;;1.55;;
40637;SDS011;26336;44.696;10.622;2023-07-30T04:50:35;2.10;;;1.77;;
40637;SDS011;26336;44.696;10.622;2023-07-30T04:53:39;1.70;;;1.50;;
40637;SDS011;26336;44.696;10.622;2023-07-30T04:56:43;3.42;;;1.60;;
40637;SDS011;26336;44.696;10.622;2023-07-30T04:59:47;1.95;;;1.40;;
40637;SDS011;26336;44.696;10.622;2023-07-30T05:02:51;2.75;;;1.50;;
40637;SDS011;26336;44.696;10.622;2023-07-30T05:05:58;3.10;;;1.67;;
40637;SDS011;26336;44.696;10.622;2023-07-30T05:09:07;3.78;;;1.80;;
40637;SDS011;26336;44.696;10.622;2023-07-30T05:12:11;2.33;;;1.85;;
40637;SDS011;26336;44.696;10.622;2023-07-30T05:15:15;3.08;;;1.83;;
40637;SDS011;26336;44.696;10.622;2023-07-30T05:18:19;3.25;;;2.13;;
40637;SDS011;26336;44.696;10.622;2023-07-30T05:21:23;4.60;;;2.03;;
40637;SDS011;26336;44.696;10.622;2023-07-30T05:24:28;2.83;;;1.98;;
40637;SDS011;26336;44.696;10.622;2023-07-30T05:27:32;2.97;;;2.30;;
40637;SDS011;26336;44.696;10.622;2023-07-30T05:30:37;5.18;;;2.90;;
40637;SDS011;26336;44.696;10.622;2023-07-30T05:33:40;3.10;;;2.60;;
40637;SDS011;26336;44.696;10.622;2023-07-30T05:36:44;4.47;;;2.65;;
40637;SDS011;26336;44.696;10.622;2023-07-30T05:39:49;8.25;;;2.60;;
40637;SDS011;26336;44.696;10.622;2023-07-30T05:42:53;3.17;;;2.50;;
40637;SDS011;26336;44.696;10.622;2023-07-30T05:45:57;2.63;;;2.10;;
40637;SDS011;26336;44.696;10.622;2023-07-30T05:49:01;2.72;;;2.45;;
40637;SDS011;26336;44.696;10.622;2023-07-30T05:52:05;5.35;;;2.38;;
40637;SDS011;26336;44.696;10.622;2023-07-30T05:55:09;3.92;;;2.42;;
40637;SDS011;26336;44.696;10.622;2023-07-30T05:58:14;3.83;;;2.78;;
40637;SDS011;26336;44.696;10.622;2023-07-30T06:01:17;5.78;;;2.33;;
40637;SDS011;26336;44.696;10.622;2023-07-30T06:04:23;3.08;;;2.67;;
40637;SDS011;26336;44.696;10.622;2023-07-30T06:07:27;2.58;;;2.30;;
40637;SDS011;26336;44.696;10.622;2023-07-30T06:10:31;3.55;;;2.90;;
40637;SDS011;26336;44.696;10.622;2023-07-30T06:13:41;3.20;;;2.70;;
40637;SDS011;26336;44.696;10.622;2023-07-30T06:16:45;5.20;;;2.40;;
40637;SDS011;26336;44.696;10.622;2023-07-30T06:19:49;2.72;;;2.30;;
40637;SDS011;26336;44.696;10.622;2023-07-30T06:22:53;4.53;;;2.00;;
40637;SDS011;26336;44.696;10.622;2023-07-30T06:25:57;3.28;;;1.80;;
40637;SDS011;26336;44.696;10.622;2023-07-30T06:29:01;7.30;;;2.55;;
40637;SDS011;26336;44.696;10.622;2023-07-30T06:32:05;5.43;;;2.35;;
40637;SDS011;26336;44.696;10.622;2023-07-30T06:35:10;5.15;;;2.50;;
40637;SDS011;26336;44.696;10.622;2023-07-30T06:38:13;2.58;;;2.00;;
40637;SDS011;26336;44.696;10.622;2023-07-30T06:41:17;2.47;;;1.83;;
40637;SDS011;26336;44.696;10.622;2023-07-30T06:44:21;5.07;;;2.40;;
40637;SDS011;26336;44.696;10.622;2023-07-30T06:47:28;4.13;;;2.30;;
40637;SDS011;26336;44.696;10.622;2023-07-30T06:50:32;4.38;;;2.30;;
40637;SDS011;26336;44.696;10.622;2023-07-30T06:53:36;4.05;;;1.83;;
40637;SDS011;26336;44.696;10.622;2023-07-30T06:56:43;2.20;;;2.00;;
40637;SDS011;26336;44.696;10.622;2023-07-30T06:59:47;3.38;;;2.13;;
40637;SDS011;26336;44.696;10.622;2023-07-30T07:02:51;4.78;;;2.70;;
40637;SDS011;26336;44.696;10.622;2023-07-30T07:05:55;3.15;;;2.25;;
40637;SDS011;26336;44.696;10.622;2023-07-30T07:08:59;5.25;;;2.53;;
40637;SDS011;26336;44.696;10.622;2023-07-30T07:12:03;2.63;;;2.03;;
40637;SDS011;26336;44.696;10.622;2023-07-30T07:15:08;3.92;;;2.03;;
40637;SDS011;26336;44.696;10.622;2023-07-30T07:18:12;4.40;;;2.03;;
40637;SDS011;26336;44.696;10.622;2023-07-30T07:21:16;3.78;;;2.53;;
40637;SDS011;26336;44.696;10.622;2023-07-30T07:24:20;4.05;;;1.77;;
40637;SDS011;26336;44.696;10.622;2023-07-30T07:27:24;2.85;;;2.17;;
40637;SDS011;26336;44.696;10.622;2023-07-30T07:30:29;3.65;;;2.72;;
40637;SDS011;26336;44.696;10.622;2023-07-30T07:33:33;2.47;;;1.80;;
40637;SDS011;26336;44.696;10.622;2023-07-30T07:36:37;3.95;;;2.50;;
40637;SDS011;26336;44.696;10.622;2023-07-30T07:39:41;2.78;;;2.10;;
40637;SDS011;26336;44.696;10.622;2023-07-30T07:42:46;3.33;;;2.00;;
40637;SDS011;26336;44.696;10.622;2023-07-30T07:45:50;2.72;;;2.20;;
40637;SDS011;26336;44.696;10.622;2023-07-30T07:48:54;3.58;;;2.05;;
40637;SDS011;26336;44.696;10.622;2023-07-30T07:51:58;3.53;;;2.05;;
40637;SDS011;26336;44.696;10.622;2023-07-30T07:55:03;4.28;;;2.20;;
40637;SDS011;26336;44.696;10.622;2023-07-30T07:58:07;4.30;;;2.53;;
40637;SDS011;26336;44.696;10.622;2023-07-30T08:01:11;3.00;;;2.35;;
40637;SDS011;26336;44.696;10.622;2023-07-30T08:04:15;3.00;;;2.22;;
40637;SDS011;26336;44.696;10.622;2023-07-30T08:07:19;2.35;;;2.15;;
40637;SDS011;26336;44.696;10.622;2023-07-30T08:10:23;3.05;;;1.98;;
40637;SDS011;26336;44.696;10.622;2023-07-30T08:13:28;4.43;;;2.40;;
40637;SDS011;26336;44.696;10.622;2023-07-30T08:16:32;2.85;;;2.10;;
40637;SDS011;26336;44.696;10.622;2023-07-30T08:19:35;4.20;;;2.15;;
40637;SDS011;26336;44.696;10.622;2023-07-30T08:22:39;8.13;;;2.38;;
40637;SDS011;26336;44.696;10.622;2023-07-30T08:25:43;3.63;;;2.30;;
40637;SDS011;26336;44.696;10.622;2023-07-30T08:28:48;6.10;;;2.60;;
40637;SDS011;26336;44.696;10.622;2023-07-30T08:31:52;3.55;;;2.38;;
40637;SDS011;26336;44.696;10.622;2023-07-30T08:34:56;4.68;;;2.65;;
40637;SDS011;26336;44.696;10.622;2023-07-30T08:38:00;3.50;;;2.60;;
40637;SDS011;26336;44.696;10.622;2023-07-30T08:41:04;2.35;;;2.13;;
40637;SDS011;26336;44.696;10.622;2023-07-30T08:44:09;5.13;;;2.78;;
40637;SDS011;26336;44.696;10.622;2023-07-30T08:47:13;5.95;;;2.55;;
40637;SDS011;26336;44.696;10.622;2023-07-30T08:50:17;3.72;;;2.40;;
40637;SDS011;26336;44.696;10.622;2023-07-30T08:53:21;4.40;;;2.60;;
40637;SDS011;26336;44.696;10.622;2023-07-30T08:56:29;3.05;;;2.63;;
40637;SDS011;26336;44.696;10.622;2023-07-30T08:59:39;4.40;;;2.58;;
40637;SDS011;26336;44.696;10.622;2023-07-30T09:02:54;2.90;;;2.55;;
40637;SDS011;26336;44.696;10.622;2023-07-30T09:06:30;4.75;;;2.65;;
40637;SDS011;26336;44.696;10.622;2023-07-30T09:09:36;3.03;;;2.20;;
40637;SDS011;26336;44.696;10.622;2023-07-30T09:12:40;3.38;;;2.28;;
40637;SDS011;26336;44.696;10.622;2023-07-30T09:15:45;3.28;;;2.75;;
40637;SDS011;26336;44.696;10.622;2023-07-30T09:18:51;4.50;;;2.45;;
40637;SDS011;26336;44.696;10.622;2023-07-30T09:21:56;3.38;;;2.55;;
40637;SDS011;26336;44.696;10.622;2023-07-30T09:25:01;5.40;;;2.90;;
40637;SDS011;26336;44.696;10.622;2023-07-30T09:28:06;3.53;;;2.45;;
40637;SDS011;26336;44.696;10.622;2023-07-30T09:31:10;4.65;;;2.85;;
40637;SDS011;26336;44.696;10.622;2023-07-30T09:34:17;4.63;;;2.60;;
40637;SDS011;26336;44.696;10.622;2023-07-30T09:37:22;3.42;;;2.38;;
40637;SDS011;26336;44.696;10.622;2023-07-30T09:40:34;2.92;;;2.33;;
40637;SDS011;26336;44.696;10.622;2023-07-30T09:43:39;4.22;;;2.50;;
40637;SDS011;26336;44.696;10.622;2023-07-30T09:46:46;4.97;;;2.55;;
40637;SDS011;26336;44.696;10.622;2023-07-30T09:49:54;3.45;;;2.45;;
40637;SDS011;26336;44.696;10.622;2023-07-30T09:53:01;2.88;;;2.33;;
40637;SDS011;26336;44.696;10.622;2023-07-30T09:56:06;4.80;;;2.65;;
40637;SDS011;26336;44.696;10.622;2023-07-30T09:59:10;3.78;;;2.83;;
40637;SDS011;26336;44.696;10.622;2023-07-30T10:02:14;4.63;;;2.55;;
40637;SDS011;26336;44.696;10.622;2023-07-30T10:05:21;3.92;;;2.50;;
40637;SDS011;26336;44.696;10.622;2023-07-30T10:08:39;3.83;;;2.90;;
40637;SDS011;26336;44.696;10.622;2023-07-30T10:11:44;3.28;;;2.30;;
40637;SDS011;26336;44.696;10.622;2023-07-30T10:14:50;3.15;;;2.22;;
40637;SDS011;26336;44.696;10.622;2023-07-30T10:17:55;4.03;;;2.67;;
40637;SDS011;26336;44.696;10.622;2023-07-30T10:21:01;4.78;;;2.45;;
40637;SDS011;26336;44.696;10.622;2023-07-30T10:24:05;4.32;;;2.42;;
40637;SDS011;26336;44.696;10.622;2023-07-30T10:27:12;3.38;;;2.45;;
40637;SDS011;26336;44.696;10.622;2023-07-30T10:30:31;3.47;;;2.30;;
40637;SDS011;26336;44.696;10.622;2023-07-30T10:33:44;4.28;;;2.53;;
40637;SDS011;26336;44.696;10.622;2023-07-30T10:36:56;3.10;;;2.50;;
40637;SDS011;26336;44.696;10.622;2023-07-30T10:40:00;4.72;;;2.70;;
40637;SDS011;26336;44.696;10.622;2023-07-30T10:43:18;3.85;;;2.30;;
40637;SDS011;26336;44.696;10.622;2023-07-30T10:46:24;2.55;;;1.98;;
40637;SDS011;26336;44.696;10.622;2023-07-30T10:49:29;2.95;;;2.15;;
40637;SDS011;26336;44.696;10.622;2023-07-30T10:52:38;5.45;;;2.00;;
40637;SDS011;26336;44.696;10.622;2023-07-30T10:55:43;3.67;;;2.58;;
40637;SDS011;26336;44.696;10.622;2023-07-30T10:58:51;3.17;;;2.45;;
40637;SDS011;26336;44.696;10.622;2023-07-30T11:01:57;3.38;;;2.42;;
40637;SDS011;26336;44.696;10.622;2023-07-30T11:05:19;3.08;;;2.33;;
40637;SDS011;26336;44.696;10.622;2023-07-30T11:11:41;4.28;;;2.20;;
40637;SDS011;26336;44.696;10.622;2023-07-30T11:14:45;3.40;;;2.35;;
40637;SDS011;26336;44.696;10.622;2023-07-30T11:17:53;2.72;;;2.17;;
40637;SDS011;26336;44.696;10.622;2023-07-30T11:21:08;4.88;;;2.65;;
40637;SDS011;26336;44.696;10.622;2023-07-30T11:24:12;3.17;;;2.30;;
40637;SDS011;26336;44.696;10.622;2023-07-30T11:27:16;3.88;;;2.20;;
40637;SDS011;26336;44.696;10.622;2023-07-30T11:30:20;2.50;;;2.30;;
40637;SDS011;26336;44.696;10.622;2023-07-30T11:33:26;2.70;;;2.22;;
40637;SDS011;26336;44.696;10.622;2023-07-30T11:36:31;3.10;;;2.60;;
40637;SDS011;26336;44.696;10.622;2023-07-30T11:39:35;4.38;;;2.60;;
40637;SDS011;26336;44.696;10.622;2023-07-30T11:42:39;4.55;;;2.50;;
40637;SDS011;26336;44.696;10.622;2023-07-30T11:45:45;4.78;;;2.50;;
40637;SDS011;26336;44.696;10.622;2023-07-30T11:48:50;6.40;;;2.70;;
40637;SDS011;26336;44.696;10.622;2023-07-30T11:52:08;4.97;;;2.10;;
40637;SDS011;26336;44.696;10.622;2023-07-30T11:55:13;3.47;;;2.35;;
40637;SDS011;26336;44.696;10.622;2023-07-30T11:58:17;2.67;;;2.20;;
40637;SDS011;26336;44.696;10.622;2023-07-30T12:01:22;4.75;;;2.42;;
40637;SDS011;26336;44.696;10.622;2023-07-30T12:04:31;3.17;;;2.42;;
40637;SDS011;26336;44.696;10.622;2023-07-30T12:07:47;3.75;;;2.40;;
40637;SDS011;26336;44.696;10.622;2023-07-30T12:10:51;2.58;;;2.03;;
40637;SDS011;26336;44.696;10.622;2023-07-30T12:13:55;3.65;;;2.50;;
40637;SDS011;26336;44.696;10.622;2023-07-30T12:17:03;4.70;;;2.63;;
40637;SDS011;26336;44.696;10.622;2023-07-30T12:20:08;4.38;;;2.88;;
40637;SDS011;26336;44.696;10.622;2023-07-30T12:23:13;4.80;;;2.72;;
40637;SDS011;26336;44.696;10.622;2023-07-30T12:26:17;4.05;;;2.50;;
40637;SDS011;26336;44.696;10.622;2023-07-30T12:29:21;4.40;;;2.63;;
40637;SDS011;26336;44.696;10.622;2023-07-30T12:32:25;4.00;;;2.53;;
40637;SDS011;26336;44.696;10.622;2023-07-30T12:35:31;4.32;;;2.58;;
40637;SDS011;26336;44.696;10.622;2023-07-30T12:38:36;5.03;;;2.35;;
40637;SDS011;26336;44.696;10.622;2023-07-30T12:41:40;4.00;;;2.40;;
40637;SDS011;26336;44.696;10.622;2023-07-30T12:44:44;2.78;;;2.30;;
40637;SDS011;26336;44.696;10.622;2023-07-30T12:47:47;3.22;;;2.25;;
40637;SDS011;26336;44.696;10.622;2023-07-30T12:50:53;4.13;;;2.70;;
40637;SDS011;26336;44.696;10.622;2023-07-30T12:53:59;4.38;;;3.00;;
40637;SDS011;26336;44.696;10.622;2023-07-30T12:57:07;3.22;;;2.70;;
40637;SDS011;26336;44.696;10.622;2023-07-30T13:00:11;5.10;;;2.50;;
40637;SDS011;26336;44.696;10.622;2023-07-30T13:03:21;4.50;;;2.55;;
40637;SDS011;26336;44.696;10.622;2023-07-30T13:06:25;5.32;;;2.83;;
40637;SDS011;26336;44.696;10.622;2023-07-30T13:09:28;3.45;;;2.33;;
40637;SDS011;26336;44.696;10.622;2023-07-30T13:12:36;4.35;;;2.78;;
40637;SDS011;26336;44.696;10.622;2023-07-30T13:15:40;4.22;;;2.15;;
40637;SDS011;26336;44.696;10.622;2023-07-30T13:18:44;4.50;;;3.05;;
40637;SDS011;26336;44.696;10.622;2023-07-30T13:21:52;3.38;;;2.90;;
40637;SDS011;26336;44.696;10.622;2023-07-30T13:24:56;4.05;;;2.72;;
40637;SDS011;26336;44.696;10.622;2023-07-30T13:28:00;4.88;;;3.08;;
40637;SDS011;26336;44.696;10.622;2023-07-30T13:31:04;4.70;;;2.72;;
40637;SDS011;26336;44.696;10.622;2023-07-30T13:34:34;3.42;;;2.67;;
40637;SDS011;26336;44.696;10.622;2023-07-30T13:37:42;3.05;;;2.72;;
40637;SDS011;26336;44.696;10.622;2023-07-30T13:40:46;3.75;;;2.80;;
40637;SDS011;26336;44.696;10.622;2023-07-30T13:43:50;2.58;;;2.33;;
40637;SDS011;26336;44.696;10.622;2023-07-30T13:47:01;3.22;;;2.72;;
40637;SDS011;26336;44.696;10.622;2023-07-30T13:50:05;5.38;;;2.55;;
40637;SDS011;26336;44.696;10.622;2023-07-30T13:53:10;3.47;;;2.67;;
40637;SDS011;26336;44.696;10.622;2023-07-30T13:56:15;2.90;;;2.35;;
40637;SDS011;26336;44.696;10.622;2023-07-30T13:59:19;3.15;;;2.72;;
40637;SDS011;26336;44.696;10.622;2023-07-30T14:02:24;2.95;;;2.53;;
40637;SDS011;26336;44.696;10.622;2023-07-30T14:05:28;4.82;;;2.75;;
40637;SDS011;26336;44.696;10.622;2023-07-30T14:08:34;3.15;;;2.50;;
40637;SDS011;26336;44.696;10.622;2023-07-30T14:11:38;5.18;;;2.78;;
40637;SDS011;26336;44.696;10.622;2023-07-30T14:14:46;3.65;;;2.95;;
40637;SDS011;26336;44.696;10.622;2023-07-30T14:17:52;3.10;;;2.00;;
40637;SDS011;26336;44.696;10.622;2023-07-30T14:20:57;4.00;;;3.00;;
40637;SDS011;26336;44.696;10.622;2023-07-30T14:24:01;2.95;;;2.38;;
40637;SDS011;26336;44.696;10.622;2023-07-30T14:27:09;3.17;;;2.78;;
40637;SDS011;26336;44.696;10.622;2023-07-30T14:30:13;5.15;;;3.10;;
40637;SDS011;26336;44.696;10.622;2023-07-30T14:33:17;4.05;;;2.78;;
40637;SDS011;26336;44.696;10.622;2023-07-30T14:36:21;3.55;;;2.70;;
40637;SDS011;26336;44.696;10.622;2023-07-30T14:39:28;3.47;;;2.70;;
40637;SDS011;26336;44.696;10.622;2023-07-30T14:42:31;3.90;;;2.97;;
40637;SDS011;26336;44.696;10.622;2023-07-30T14:45:35;3.35;;;2.55;;
40637;SDS011;26336;44.696;10.622;2023-07-30T14:48:42;3.10;;;2.67;;
40637;SDS011;26336;44.696;10.622;2023-07-30T14:51:47;3.90;;;2.65;;
40637;SDS011;26336;44.696;10.622;2023-07-30T14:54:54;4.80;;;2.55;;
40637;SDS011;26336;44.696;10.622;2023-07-30T14:57:58;2.70;;;2.50;;
40637;SDS011;26336;44.696;10.622;2023-07-30T15:01:04;3.38;;;2.97;;
40637;SDS011;26336;44.696;10.622;2023-07-30T15:04:08;4.15;;;2.55;;
40637;SDS011;26336;44.696;10.622;2023-07-30T15:07:13;4.50;;;3.33;;
40637;SDS011;26336;44.696;10.622;2023-07-30T15:10:20;2.88;;;2.67;;
40637;SDS011;26336;44.696;10.622;2023-07-30T15:13:24;2.70;;;2.50;;
40637;SDS011;26336;44.696;10.622;2023-07-30T15:16:28;5.80;;;3.00;;
40637;SDS011;26336;44.696;10.622;2023-07-30T15:19:32;2.97;;;2.60;;
40637;SDS011;26336;44.696;10.622;2023-07-30T15:22:36;4.65;;;2.83;;
40637;SDS011;26336;44.696;10.622;2023-07-30T15:25:40;4.45;;;2.83;;
40637;SDS011;26336;44.696;10.622;2023-07-30T15:28:44;4.45;;;3.03;;
40637;SDS011;26336;44.696;10.622;2023-07-30T15:31:48;4.32;;;2.35;;
40637;SDS011;26336;44.696;10.622;2023-07-30T15:34:56;3.38;;;2.60;;
40637;SDS011;26336;44.696;10.622;2023-07-30T15:38:00;3.45;;;2.90;;
40637;SDS011;26336;44.696;10.622;2023-07-30T15:41:11;3.17;;;2.40;;
40637;SDS011;26336;44.696;10.622;2023-07-30T15:44:19;3.92;;;2.63;;
40637;SDS011;26336;44.696;10.622;2023-07-30T15:47:23;3.15;;;2.65;;
40637;SDS011;26336;44.696;10.622;2023-07-30T15:50:31;3.35;;;2.47;;
40637;SDS011;26336;44.696;10.622;2023-07-30T15:53:37;3.25;;;2.83;;
40637;SDS011;26336;44.696;10.622;2023-07-30T15:57:25;3.40;;;3.10;;
40637;SDS011;26336;44.696;10.622;2023-07-30T16:00:29;3.72;;;2.17;;
40637;SDS011;26336;44.696;10.622;2023-07-30T16:03:33;2.92;;;2.67;;
40637;SDS011;26336;44.696;10.622;2023-07-30T16:06:38;3.35;;;2.90;;
40637;SDS011;26336;44.696;10.622;2023-07-30T16:09:42;3.05;;;2.47;;
40637;SDS011;26336;44.696;10.622;2023-07-30T16:12:46;3.38;;;2.90;;
40637;SDS011;26336;44.696;10.622;2023-07-30T16:15:50;3.25;;;2.58;;
40637;SDS011;26336;44.696;10.622;2023-07-30T16:18:54;5.40;;;3.03;;
40637;SDS011;26336;44.696;10.622;2023-07-30T16:21:59;2.83;;;2.60;;
40637;SDS011;26336;44.696;10.622;2023-07-30T16:25:03;3.03;;;2.53;;
40637;SDS011;26336;44.696;10.622;2023-07-30T16:28:07;2.72;;;2.45;;
40637;SDS011;26336;44.696;10.622;2023-07-30T16:31:11;3.00;;;2.40;;
40637;SDS011;26336;44.696;10.622;2023-07-30T16:34:15;3.80;;;3.03;;
40637;SDS011;26336;44.696;10.622;2023-07-30T16:37:19;3.58;;;2.95;;
40637;SDS011;26336;44.696;10.622;2023-07-30T16:40:23;3.25;;;2.90;;
40637;SDS011;26336;44.696;10.622;2023-07-30T16:43:27;3.45;;;2.83;;
40637;SDS011;26336;44.696;10.622;2023-07-30T16:46:30;5.32;;;3.20;;
40637;SDS011;26336;44.696;10.622;2023-07-30T16:49:34;3.33;;;2.80;;
40637;SDS011;26336;44.696;10.622;2023-07-30T16:52:39;2.88;;;2.55;;
40637;SDS011;26336;44.696;10.622;2023-07-30T16:55:42;5.05;;;3.10;;
40637;SDS011;26336;44.696;10.622;2023-07-30T16:58:46;5.53;;;3.47;;
40637;SDS011;26336;44.696;10.622;2023-07-30T17:01:54;3.72;;;2.88;;
40637;SDS011;26336;44.696;10.622;2023-07-30T17:04:59;4.68;;;3.10;;
40637;SDS011;26336;44.696;10.622;2023-07-30T17:08:09;4.10;;;3.00;;
40637;SDS011;26336;44.696;10.622;2023-07-30T17:11:19;4.95;;;3.05;;
40637;SDS011;26336;44.696;10.622;2023-07-30T17:14:23;3.70;;;2.63;;
40637;SDS011;26336;44.696;10.622;2023-07-30T17:17:30;3.97;;;2.78;;
40637;SDS011;26336;44.696;10.622;2023-07-30T17:20:34;3.45;;;2.88;;
40637;SDS011;26336;44.696;10.622;2023-07-30T17:23:45;3.20;;;2.58;;
40637;SDS011;26336;44.696;10.622;2023-07-30T17:26:54;3.92;;;2.60;;
40637;SDS011;26336;44.696;10.622;2023-07-30T17:30:05;4.88;;;3.17;;
40637;SDS011;26336;44.696;10.622;2023-07-30T17:33:10;4.15;;;2.83;;
40637;SDS011;26336;44.696;10.622;2023-07-30T17:36:14;3.72;;;2.35;;
40637;SDS011;26336;44.696;10.622;2023-07-30T17:39:18;4.75;;;2.80;;
40637;SDS011;26336;44.696;10.622;2023-07-30T17:42:22;5.68;;;3.38;;
40637;SDS011;26336;44.696;10.622;2023-07-30T17:45:27;3.95;;;2.75;;
40637;SDS011;26336;44.696;10.622;2023-07-30T17:48:32;3.70;;;2.90;;
40637;SDS011;26336;44.696;10.622;2023-07-30T17:51:38;2.78;;;2.45;;
40637;SDS011;26336;44.696;10.622;2023-07-30T17:54:42;3.85;;;3.15;;
40637;SDS011;26336;44.696;10.622;2023-07-30T17:57:46;4.18;;;3.30;;
40637;SDS011;26336;44.696;10.622;2023-07-30T18:00:53;4.70;;;3.70;;
40637;SDS011;26336;44.696;10.622;2023-07-30T18:03:57;5.30;;;2.70;;
40637;SDS011;26336;44.696;10.622;2023-07-30T18:07:01;4.25;;;2.50;;
40637;SDS011;26336;44.696;10.622;2023-07-30T18:10:05;5.10;;;3.10;;
40637;SDS011;26336;44.696;10.622;2023-07-30T18:13:09;4.30;;;3.30;;
40637;SDS011;26336;44.696;10.622;2023-07-30T18:16:16;4.75;;;2.95;;
40637;SDS011;26336;44.696;10.622;2023-07-30T18:19:20;3.35;;;2.70;;
40637;SDS011;26336;44.696;10.622;2023-07-30T18:22:27;3.03;;;2.72;;